sensor_id;sensor_type;location;lat;lon;timestamp;temperature;humidity
30973;DHT22;25423;45.624;13.790;2023-01-05T00:00:49;11.90;99.90
30973;DHT22;25423;45.624;13.790;2023-01-05T00:03:14;11.90;99.90
30973;DHT22;25423;45.624;13.790;2023-01-05T00:05:40;11.90;99.90
30973;DHT22;25423;45.624;13.790;2023-01-05T00:08:05;11.90;99.90
30973;DHT22;25423;45.624;13.790;2023-01-05T00:10:31;11.90;99.90
30973;DHT22;25423;45.624;13.790;2023-01-05T00:13:18;11.90;99.90
30973;DHT22;25423;45.624;13.790;2023-01-05T00:16:04;11.80;99.90
30973;DHT22;25423;45.624;13.790;2023-01-05T00:18:48;11.80;99.90
30973;DHT22;25423;45.624;13.790;2023-01-05T00:21:38;11.80;99.90
30973;DHT22;25423;45.624;13.790;2023-01-05T00:24:22;11.80;99.90
30973;DHT22;25423;45.624;13.790;2023-01-05T00:26:48;11.80;99.90
30973;DHT22;25423;45.624;13.790;2023-01-05T00:29:13;11.90;99.90
30973;DHT22;25423;45.624;13.790;2023-01-05T00:31:39;12.00;99.90
30973;DHT22;25423;45.624;13.790;2023-01-05T00:34:04;11.90;99.90
30973;DHT22;25423;45.624;13.790;2023-01-05T00:36:30;11.80;99.90
30973;DHT22;25423;45.624;13.790;2023-01-05T00:38:55;11.90;99.90
30973;DHT22;25423;45.624;13.790;2023-01-05T00:41:21;11.80;99.90
30973;DHT22;25423;45.624;13.790;2023-01-05T00:43:46;11.90;99.90
30973;DHT22;25423;45.624;13.790;2023-01-05T00:46:12;11.90;99.90
30973;DHT22;25423;45.624;13.790;2023-01-05T00:48:38;11.80;99.90
30973;DHT22;25423;45.624;13.790;2023-01-05T00:51:03;11.90;99.90
30973;DHT22;25423;45.624;13.790;2023-01-05T00:53:29;11.90;99.90
30973;DHT22;25423;45.624;13.790;2023-01-05T00:55:55;11.90;99.90
30973;DHT22;25423;45.624;13.790;2023-01-05T00:58:21;11.90;99.90
30973;DHT22;25423;45.624;13.790;2023-01-05T01:00:46;11.80;99.90
30973;DHT22;25423;45.624;13.790;2023-01-05T01:03:12;11.80;99.90
30973;DHT22;25423;45.624;13.790;2023-01-05T01:05:37;11.80;99.90
30973;DHT22;25423;45.624;13.790;2023-01-05T01:08:03;11.80;99.90
30973;DHT22;25423;45.624;13.790;2023-01-05T01:10:28;11.70;99.90
30973;DHT22;25423;45.624;13.790;2023-01-05T01:12:54;11.80;99.90
30973;DHT22;25423;45.624;13.790;2023-01-05T01:15:19;11.80;99.90
30973;DHT22;25423;45.624;13.790;2023-01-05T01:17:45;11.80;99.90
30973;DHT22;25423;45.624;13.790;2023-01-05T01:20:11;11.80;99.90
30973;DHT22;25423;45.624;13.790;2023-01-05T01:22:36;11.80;99.90
30973;DHT22;25423;45.624;13.790;2023-01-05T01:25:02;11.80;99.90
30973;DHT22;25423;45.624;13.790;2023-01-05T01:27:31;11.80;99.90
30973;DHT22;25423;45.624;13.790;2023-01-05T01:29:57;11.80;99.90
30973;DHT22;25423;45.624;13.790;2023-01-05T01:32:22;11.90;99.90
30973;DHT22;25423;45.624;13.790;2023-01-05T01:34:49;12.00;99.90
30973;DHT22;25423;45.624;13.790;2023-01-05T01:37:15;11.90;99.90
30973;DHT22;25423;45.624;13.790;2023-01-05T01:39:41;11.90;99.90
30973;DHT22;25423;45.624;13.790;2023-01-05T01:42:13;12.00;99.90
30973;DHT22;25423;45.624;13.790;2023-01-05T01:47:19;12.00;99.90
30973;DHT22;25423;45.624;13.790;2023-01-05T01:49:46;11.90;99.90
30973;DHT22;25423;45.624;13.790;2023-01-05T01:52:12;11.90;99.90
30973;DHT22;25423;45.624;13.790;2023-01-05T01:54:38;11.90;99.90
30973;DHT22;25423;45.624;13.790;2023-01-05T01:57:04;11.90;99.90
30973;DHT22;25423;45.624;13.790;2023-01-05T01:59:30;11.90;99.90
30973;DHT22;25423;45.624;13.790;2023-01-05T02:01:56;11.80;99.90
30973;DHT22;25423;45.624;13.790;2023-01-05T02:04:24;11.90;99.90
30973;DHT22;25423;45.624;13.790;2023-01-05T02:06:50;11.90;99.90
30973;DHT22;25423;45.624;13.790;2023-01-05T02:09:17;11.80;99.90
30973;DHT22;25423;45.624;13.790;2023-01-05T02:11:44;11.80;99.90
30973;DHT22;25423;45.624;13.790;2023-01-05T02:22:40;12.00;99.90
30973;DHT22;25423;45.624;13.790;2023-01-05T02:27:48;11.90;99.90
30973;DHT22;25423;45.624;13.790;2023-01-05T02:35:38;11.90;99.90
30973;DHT22;25423;45.624;13.790;2023-01-05T02:38:08;11.80;99.90
30973;DHT22;25423;45.624;13.790;2023-01-05T02:40:36;11.80;99.90
30973;DHT22;25423;45.624;13.790;2023-01-05T02:43:03;11.80;99.90
30973;DHT22;25423;45.624;13.790;2023-01-05T02:45:29;11.90;99.90
30973;DHT22;25423;45.624;13.790;2023-01-05T02:47:55;12.00;99.90
30973;DHT22;25423;45.624;13.790;2023-01-05T02:50:23;11.90;99.90
30973;DHT22;25423;45.624;13.790;2023-01-05T02:55:21;11.90;99.90
30973;DHT22;25423;45.624;13.790;2023-01-05T02:57:52;11.90;99.90
30973;DHT22;25423;45.624;13.790;2023-01-05T03:02:49;11.90;99.90
30973;DHT22;25423;45.624;13.790;2023-01-05T03:05:19;11.80;99.90
30973;DHT22;25423;45.624;13.790;2023-01-05T03:07:46;11.80;99.90
30973;DHT22;25423;45.624;13.790;2023-01-05T03:10:12;11.80;99.90
30973;DHT22;25423;45.624;13.790;2023-01-05T03:12:59;11.80;99.90
30973;DHT22;25423;45.624;13.790;2023-01-05T03:15:45;11.80;99.90
30973;DHT22;25423;45.624;13.790;2023-01-05T03:18:12;11.80;99.90
30973;DHT22;25423;45.624;13.790;2023-01-05T03:20:40;11.80;99.90
30973;DHT22;25423;45.624;13.790;2023-01-05T03:23:07;11.80;99.90
30973;DHT22;25423;45.624;13.790;2023-01-05T03:25:52;11.80;99.90
30973;DHT22;25423;45.624;13.790;2023-01-05T03:28:45;11.80;99.90
30973;DHT22;25423;45.624;13.790;2023-01-05T03:37:21;11.80;99.90
30973;DHT22;25423;45.624;13.790;2023-01-05T03:39:48;11.90;99.90
30973;DHT22;25423;45.624;13.790;2023-01-05T03:42:14;11.90;99.90
30973;DHT22;25423;45.624;13.790;2023-01-05T03:44:42;11.80;99.90
30973;DHT22;25423;45.624;13.790;2023-01-05T03:47:08;11.80;99.90
30973;DHT22;25423;45.624;13.790;2023-01-05T03:49:34;11.80;99.90
30973;DHT22;25423;45.624;13.790;2023-01-05T03:52:00;11.80;99.90
30973;DHT22;25423;45.624;13.790;2023-01-05T03:54:25;11.90;99.90
30973;DHT22;25423;45.624;13.790;2023-01-05T03:56:51;11.90;99.90
30973;DHT22;25423;45.624;13.790;2023-01-05T03:59:16;11.90;99.90
30973;DHT22;25423;45.624;13.790;2023-01-05T04:01:42;11.90;99.90
30973;DHT22;25423;45.624;13.790;2023-01-05T04:04:07;11.90;99.90
30973;DHT22;25423;45.624;13.790;2023-01-05T04:06:33;11.90;99.90
30973;DHT22;25423;45.624;13.790;2023-01-05T04:08:59;11.90;99.90
30973;DHT22;25423;45.624;13.790;2023-01-05T04:11:24;11.80;99.90
30973;DHT22;25423;45.624;13.790;2023-01-05T04:13:50;11.80;99.90
30973;DHT22;25423;45.624;13.790;2023-01-05T04:16:15;11.90;99.90
30973;DHT22;25423;45.624;13.790;2023-01-05T04:18:41;11.80;99.90
30973;DHT22;25423;45.624;13.790;2023-01-05T04:21:07;11.80;99.90
30973;DHT22;25423;45.624;13.790;2023-01-05T04:23:33;11.80;99.90
30973;DHT22;25423;45.624;13.790;2023-01-05T04:25:59;11.70;99.90
30973;DHT22;25423;45.624;13.790;2023-01-05T04:28:25;11.80;99.90
30973;DHT22;25423;45.624;13.790;2023-01-05T04:30:51;11.70;99.90
30973;DHT22;25423;45.624;13.790;2023-01-05T04:33:17;11.80;99.90
30973;DHT22;25423;45.624;13.790;2023-01-05T04:35:43;11.80;99.90
30973;DHT22;25423;45.624;13.790;2023-01-05T04:38:09;11.70;99.90
30973;DHT22;25423;45.624;13.790;2023-01-05T04:40:35;11.70;99.90
30973;DHT22;25423;45.624;13.790;2023-01-05T04:43:00;11.70;99.90
30973;DHT22;25423;45.624;13.790;2023-01-05T04:45:26;11.70;99.90
30973;DHT22;25423;45.624;13.790;2023-01-05T04:47:51;11.70;99.90
30973;DHT22;25423;45.624;13.790;2023-01-05T04:50:17;11.70;99.90
30973;DHT22;25423;45.624;13.790;2023-01-05T04:52:43;11.70;99.90
30973;DHT22;25423;45.624;13.790;2023-01-05T04:55:09;11.70;99.90
30973;DHT22;25423;45.624;13.790;2023-01-05T04:57:34;11.70;99.90
30973;DHT22;25423;45.624;13.790;2023-01-05T05:00:00;11.70;99.90
30973;DHT22;25423;45.624;13.790;2023-01-05T05:02:26;11.70;99.90
30973;DHT22;25423;45.624;13.790;2023-01-05T05:04:52;11.80;99.90
30973;DHT22;25423;45.624;13.790;2023-01-05T05:07:17;11.80;99.90
30973;DHT22;25423;45.624;13.790;2023-01-05T05:09:43;11.80;99.90
30973;DHT22;25423;45.624;13.790;2023-01-05T05:12:09;11.80;99.90
30973;DHT22;25423;45.624;13.790;2023-01-05T05:14:34;11.70;99.90
30973;DHT22;25423;45.624;13.790;2023-01-05T05:17:00;11.70;99.90
30973;DHT22;25423;45.624;13.790;2023-01-05T05:19:25;11.70;99.90
30973;DHT22;25423;45.624;13.790;2023-01-05T05:21:51;11.70;99.90
30973;DHT22;25423;45.624;13.790;2023-01-05T05:24:16;11.70;99.90
30973;DHT22;25423;45.624;13.790;2023-01-05T05:26:42;11.70;99.90
30973;DHT22;25423;45.624;13.790;2023-01-05T05:29:07;11.70;99.90
30973;DHT22;25423;45.624;13.790;2023-01-05T05:31:33;11.70;99.90
30973;DHT22;25423;45.624;13.790;2023-01-05T05:33:59;11.70;99.90
30973;DHT22;25423;45.624;13.790;2023-01-05T05:36:24;11.70;99.90
30973;DHT22;25423;45.624;13.790;2023-01-05T05:38:50;11.70;99.90
30973;DHT22;25423;45.624;13.790;2023-01-05T05:41:15;11.70;99.90
30973;DHT22;25423;45.624;13.790;2023-01-05T05:43:41;11.70;99.90
30973;DHT22;25423;45.624;13.790;2023-01-05T05:46:07;11.70;99.90
30973;DHT22;25423;45.624;13.790;2023-01-05T05:48:32;11.70;99.90
30973;DHT22;25423;45.624;13.790;2023-01-05T05:50:58;11.60;99.90
30973;DHT22;25423;45.624;13.790;2023-01-05T05:53:23;11.60;99.90
30973;DHT22;25423;45.624;13.790;2023-01-05T05:55:49;11.60;99.90
30973;DHT22;25423;45.624;13.790;2023-01-05T05:58:15;11.70;99.90
30973;DHT22;25423;45.624;13.790;2023-01-05T06:00:41;11.70;99.90
30973;DHT22;25423;45.624;13.790;2023-01-05T06:03:06;11.80;99.90
30973;DHT22;25423;45.624;13.790;2023-01-05T06:05:32;11.70;99.90
30973;DHT22;25423;45.624;13.790;2023-01-05T06:07:58;11.70;99.90
30973;DHT22;25423;45.624;13.790;2023-01-05T06:10:23;11.70;99.90
30973;DHT22;25423;45.624;13.790;2023-01-05T06:12:49;11.70;99.90
30973;DHT22;25423;45.624;13.790;2023-01-05T06:15:14;11.70;99.90
30973;DHT22;25423;45.624;13.790;2023-01-05T06:17:40;11.70;99.90
30973;DHT22;25423;45.624;13.790;2023-01-05T06:20:06;11.70;99.90
30973;DHT22;25423;45.624;13.790;2023-01-05T06:22:32;11.60;99.90
30973;DHT22;25423;45.624;13.790;2023-01-05T06:24:58;11.70;99.90
30973;DHT22;25423;45.624;13.790;2023-01-05T06:27:24;11.70;99.90
30973;DHT22;25423;45.624;13.790;2023-01-05T06:29:49;11.70;99.90
30973;DHT22;25423;45.624;13.790;2023-01-05T06:32:15;11.60;99.90
30973;DHT22;25423;45.624;13.790;2023-01-05T06:34:40;11.60;99.90
30973;DHT22;25423;45.624;13.790;2023-01-05T06:37:06;11.60;99.90
30973;DHT22;25423;45.624;13.790;2023-01-05T06:39:31;11.60;99.90
30973;DHT22;25423;45.624;13.790;2023-01-05T06:41:57;11.60;99.90
30973;DHT22;25423;45.624;13.790;2023-01-05T06:44:22;11.60;99.90
30973;DHT22;25423;45.624;13.790;2023-01-05T06:46:48;11.50;99.90
30973;DHT22;25423;45.624;13.790;2023-01-05T06:49:13;11.50;99.90
30973;DHT22;25423;45.624;13.790;2023-01-05T06:51:39;11.50;99.90
30973;DHT22;25423;45.624;13.790;2023-01-05T06:54:05;11.50;99.90
30973;DHT22;25423;45.624;13.790;2023-01-05T06:56:31;11.50;99.90
30973;DHT22;25423;45.624;13.790;2023-01-05T06:58:56;11.60;99.90
30973;DHT22;25423;45.624;13.790;2023-01-05T07:01:22;11.60;99.90
30973;DHT22;25423;45.624;13.790;2023-01-05T07:03:47;11.60;99.90
30973;DHT22;25423;45.624;13.790;2023-01-05T07:06:13;11.60;99.90
30973;DHT22;25423;45.624;13.790;2023-01-05T07:08:39;11.60;99.90
30973;DHT22;25423;45.624;13.790;2023-01-05T07:11:05;11.60;99.90
30973;DHT22;25423;45.624;13.790;2023-01-05T07:13:30;11.50;99.90
30973;DHT22;25423;45.624;13.790;2023-01-05T07:15:56;11.60;99.90
30973;DHT22;25423;45.624;13.790;2023-01-05T07:18:21;11.60;99.90
30973;DHT22;25423;45.624;13.790;2023-01-05T07:20:47;11.50;99.90
30973;DHT22;25423;45.624;13.790;2023-01-05T07:23:12;11.50;99.90
30973;DHT22;25423;45.624;13.790;2023-01-05T07:25:38;11.50;99.90
30973;DHT22;25423;45.624;13.790;2023-01-05T07:28:04;11.60;99.90
30973;DHT22;25423;45.624;13.790;2023-01-05T07:30:29;11.60;99.90
30973;DHT22;25423;45.624;13.790;2023-01-05T07:32:58;11.60;99.90
30973;DHT22;25423;45.624;13.790;2023-01-05T07:35:24;11.60;99.90
30973;DHT22;25423;45.624;13.790;2023-01-05T07:37:49;11.60;99.90
30973;DHT22;25423;45.624;13.790;2023-01-05T07:40:15;11.50;99.90
30973;DHT22;25423;45.624;13.790;2023-01-05T07:42:40;11.50;99.90
30973;DHT22;25423;45.624;13.790;2023-01-05T07:45:07;11.50;99.90
30973;DHT22;25423;45.624;13.790;2023-01-05T07:47:33;11.50;99.90
30973;DHT22;25423;45.624;13.790;2023-01-05T07:49:58;11.50;99.90
30973;DHT22;25423;45.624;13.790;2023-01-05T07:52:24;11.60;99.90
30973;DHT22;25423;45.624;13.790;2023-01-05T07:54:49;11.60;99.90
30973;DHT22;25423;45.624;13.790;2023-01-05T07:57:15;11.60;99.90
30973;DHT22;25423;45.624;13.790;2023-01-05T07:59:40;11.50;99.90
30973;DHT22;25423;45.624;13.790;2023-01-05T08:02:07;11.60;99.90
30973;DHT22;25423;45.624;13.790;2023-01-05T08:04:33;11.60;99.90
30973;DHT22;25423;45.624;13.790;2023-01-05T08:06:58;11.60;99.90
30973;DHT22;25423;45.624;13.790;2023-01-05T08:09:26;11.60;99.90
30973;DHT22;25423;45.624;13.790;2023-01-05T08:12:10;11.60;99.90
30973;DHT22;25423;45.624;13.790;2023-01-05T08:14:36;11.60;99.90
30973;DHT22;25423;45.624;13.790;2023-01-05T08:17:01;11.60;99.90
30973;DHT22;25423;45.624;13.790;2023-01-05T08:19:27;11.60;99.90
30973;DHT22;25423;45.624;13.790;2023-01-05T08:21:52;11.60;99.90
30973;DHT22;25423;45.624;13.790;2023-01-05T08:24:18;11.50;99.90
30973;DHT22;25423;45.624;13.790;2023-01-05T08:26:43;11.50;99.90
30973;DHT22;25423;45.624;13.790;2023-01-05T08:29:09;11.50;99.90
30973;DHT22;25423;45.624;13.790;2023-01-05T08:31:34;11.50;99.90
30973;DHT22;25423;45.624;13.790;2023-01-05T08:34:02;11.50;99.90
30973;DHT22;25423;45.624;13.790;2023-01-05T08:36:28;11.50;99.90
30973;DHT22;25423;45.624;13.790;2023-01-05T08:38:55;11.50;99.90
30973;DHT22;25423;45.624;13.790;2023-01-05T08:41:22;11.50;99.90
30973;DHT22;25423;45.624;13.790;2023-01-05T08:43:52;11.50;99.90
30973;DHT22;25423;45.624;13.790;2023-01-05T08:46:18;11.50;99.90
30973;DHT22;25423;45.624;13.790;2023-01-05T08:48:46;11.40;99.90
30973;DHT22;25423;45.624;13.790;2023-01-05T08:51:12;11.30;99.90
30973;DHT22;25423;45.624;13.790;2023-01-05T08:53:37;11.30;99.90
30973;DHT22;25423;45.624;13.790;2023-01-05T08:56:03;11.30;99.90
30973;DHT22;25423;45.624;13.790;2023-01-05T08:58:29;11.30;99.90
30973;DHT22;25423;45.624;13.790;2023-01-05T09:00:54;11.30;99.90
30973;DHT22;25423;45.624;13.790;2023-01-05T09:03:20;11.30;99.90
30973;DHT22;25423;45.624;13.790;2023-01-05T09:05:45;11.30;99.90
30973;DHT22;25423;45.624;13.790;2023-01-05T09:08:11;11.20;99.90
30973;DHT22;25423;45.624;13.790;2023-01-05T09:10:36;11.10;99.90
30973;DHT22;25423;45.624;13.790;2023-01-05T09:13:02;11.10;99.90
30973;DHT22;25423;45.624;13.790;2023-01-05T09:15:27;11.10;99.90
30973;DHT22;25423;45.624;13.790;2023-01-05T09:17:53;11.10;99.90
30973;DHT22;25423;45.624;13.790;2023-01-05T09:20:18;11.10;99.90
30973;DHT22;25423;45.624;13.790;2023-01-05T09:22:44;11.00;99.90
30973;DHT22;25423;45.624;13.790;2023-01-05T09:25:10;11.00;99.90
30973;DHT22;25423;45.624;13.790;2023-01-05T09:27:35;10.90;99.90
30973;DHT22;25423;45.624;13.790;2023-01-05T09:30:02;10.90;99.90
30973;DHT22;25423;45.624;13.790;2023-01-05T09:32:28;10.90;99.90
30973;DHT22;25423;45.624;13.790;2023-01-05T09:34:53;10.80;99.90
30973;DHT22;25423;45.624;13.790;2023-01-05T09:37:19;10.80;99.90
30973;DHT22;25423;45.624;13.790;2023-01-05T09:39:45;10.90;99.90
30973;DHT22;25423;45.624;13.790;2023-01-05T09:42:11;11.00;99.90
30973;DHT22;25423;45.624;13.790;2023-01-05T09:44:41;11.00;99.90
30973;DHT22;25423;45.624;13.790;2023-01-05T09:49:38;11.10;99.90
30973;DHT22;25423;45.624;13.790;2023-01-05T09:52:06;11.10;99.90
30973;DHT22;25423;45.624;13.790;2023-01-05T09:54:33;11.00;99.90
30973;DHT22;25423;45.624;13.790;2023-01-05T09:56:59;11.10;99.90
30973;DHT22;25423;45.624;13.790;2023-01-05T09:59:26;11.10;99.90
30973;DHT22;25423;45.624;13.790;2023-01-05T10:01:54;11.20;99.90
30973;DHT22;25423;45.624;13.790;2023-01-05T10:04:20;11.20;99.90
30973;DHT22;25423;45.624;13.790;2023-01-05T10:06:49;11.30;99.90
30973;DHT22;25423;45.624;13.790;2023-01-05T10:09:17;11.40;99.90
30973;DHT22;25423;45.624;13.790;2023-01-05T10:14:40;11.50;99.90
30973;DHT22;25423;45.624;13.790;2023-01-05T10:17:08;11.60;99.90
30973;DHT22;25423;45.624;13.790;2023-01-05T10:19:36;11.60;99.90
30973;DHT22;25423;45.624;13.790;2023-01-05T10:22:04;11.70;99.90
30973;DHT22;25423;45.624;13.790;2023-01-05T10:25:07;11.70;99.90
30973;DHT22;25423;45.624;13.790;2023-01-05T10:30:02;11.60;99.90
30973;DHT22;25423;45.624;13.790;2023-01-05T10:34:59;11.70;99.90
30973;DHT22;25423;45.624;13.790;2023-01-05T10:45:10;11.80;99.90
30973;DHT22;25423;45.624;13.790;2023-01-05T10:47:37;11.80;99.90
30973;DHT22;25423;45.624;13.790;2023-01-05T10:50:18;11.80;99.90
30973;DHT22;25423;45.624;13.790;2023-01-05T10:52:46;11.80;99.90
30973;DHT22;25423;45.624;13.790;2023-01-05T10:55:12;11.80;99.90
30973;DHT22;25423;45.624;13.790;2023-01-05T10:57:40;11.90;99.90
30973;DHT22;25423;45.624;13.790;2023-01-05T11:02:32;11.90;99.90
30973;DHT22;25423;45.624;13.790;2023-01-05T11:05:03;11.90;99.90
30973;DHT22;25423;45.624;13.790;2023-01-05T11:07:29;11.80;99.90
30973;DHT22;25423;45.624;13.790;2023-01-05T11:09:55;11.90;99.90
30973;DHT22;25423;45.624;13.790;2023-01-05T11:12:21;11.80;99.90
30973;DHT22;25423;45.624;13.790;2023-01-05T11:14:52;11.70;99.90
30973;DHT22;25423;45.624;13.790;2023-01-05T11:17:18;11.70;99.90
30973;DHT22;25423;45.624;13.790;2023-01-05T11:19:46;11.70;99.90
30973;DHT22;25423;45.624;13.790;2023-01-05T11:25:01;11.70;99.90
30973;DHT22;25423;45.624;13.790;2023-01-05T11:27:36;11.60;99.90
30973;DHT22;25423;45.624;13.790;2023-01-05T11:32:43;11.60;99.90
30973;DHT22;25423;45.624;13.790;2023-01-05T11:35:29;11.60;99.90
30973;DHT22;25423;45.624;13.790;2023-01-05T11:37:55;11.60;99.90
30973;DHT22;25423;45.624;13.790;2023-01-05T11:40:22;11.60;99.90
30973;DHT22;25423;45.624;13.790;2023-01-05T11:42:50;11.60;99.90
30973;DHT22;25423;45.624;13.790;2023-01-05T11:45:25;11.70;99.90
30973;DHT22;25423;45.624;13.790;2023-01-05T11:47:54;11.70;99.90
30973;DHT22;25423;45.624;13.790;2023-01-05T11:50:22;11.70;99.90
30973;DHT22;25423;45.624;13.790;2023-01-05T11:55:34;11.70;99.90
30973;DHT22;25423;45.624;13.790;2023-01-05T12:00:50;11.70;99.90
30973;DHT22;25423;45.624;13.790;2023-01-05T12:05:54;11.60;99.90
30973;DHT22;25423;45.624;13.790;2023-01-05T12:08:25;11.70;99.90
30973;DHT22;25423;45.624;13.790;2023-01-05T12:16:05;11.70;99.90
30973;DHT22;25423;45.624;13.790;2023-01-05T12:21:20;11.70;99.90
30973;DHT22;25423;45.624;13.790;2023-01-05T12:26:27;11.80;99.90
30973;DHT22;25423;45.624;13.790;2023-01-05T12:52:30;11.70;99.90
30973;DHT22;25423;45.624;13.790;2023-01-05T12:57:28;11.60;99.90
30973;DHT22;25423;45.624;13.790;2023-01-05T12:59:58;11.60;99.90
30973;DHT22;25423;45.624;13.790;2023-01-05T13:07:21;11.50;99.90
30973;DHT22;25423;45.624;13.790;2023-01-05T13:09:55;11.60;99.90
30973;DHT22;25423;45.624;13.790;2023-01-05T13:12:21;11.50;99.90
30973;DHT22;25423;45.624;13.790;2023-01-05T13:14:49;11.60;99.90
30973;DHT22;25423;45.624;13.790;2023-01-05T13:17:24;11.60;99.90
30973;DHT22;25423;45.624;13.790;2023-01-05T13:22:30;11.50;99.90
30973;DHT22;25423;45.624;13.790;2023-01-05T13:27:25;11.40;99.90
30973;DHT22;25423;45.624;13.790;2023-01-05T13:29:53;11.40;99.90
30973;DHT22;25423;45.624;13.790;2023-01-05T13:35:16;11.40;99.90
30973;DHT22;25423;45.624;13.790;2023-01-05T13:37:54;11.50;99.90
30973;DHT22;25423;45.624;13.790;2023-01-05T13:53:46;11.30;99.90
30973;DHT22;25423;45.624;13.790;2023-01-05T13:56:25;11.30;99.90
30973;DHT22;25423;45.624;13.790;2023-01-05T13:58:52;11.30;99.90
30973;DHT22;25423;45.624;13.790;2023-01-05T14:01:35;11.30;99.90
30973;DHT22;25423;45.624;13.790;2023-01-05T14:04:02;11.30;99.90
30973;DHT22;25423;45.624;13.790;2023-01-05T14:06:32;11.30;99.90
30973;DHT22;25423;45.624;13.790;2023-01-05T14:09:02;11.30;99.90
30973;DHT22;25423;45.624;13.790;2023-01-05T14:11:28;11.30;99.90
30973;DHT22;25423;45.624;13.790;2023-01-05T14:13:58;11.30;99.90
30973;DHT22;25423;45.624;13.790;2023-01-05T14:19:18;11.30;99.90
30973;DHT22;25423;45.624;13.790;2023-01-05T14:24:33;11.20;99.90
30973;DHT22;25423;45.624;13.790;2023-01-05T14:34:46;11.30;99.90
30973;DHT22;25423;45.624;13.790;2023-01-05T14:37:55;11.20;99.90
30973;DHT22;25423;45.624;13.790;2023-01-05T14:40:00;11.20;99.90
30973;DHT22;25423;45.624;13.790;2023-01-05T14:42:33;11.20;99.90
30973;DHT22;25423;45.624;13.790;2023-01-05T14:45:01;11.20;99.90
30973;DHT22;25423;45.624;13.790;2023-01-05T14:47:38;11.20;99.90
30973;DHT22;25423;45.624;13.790;2023-01-05T14:50:05;11.20;99.90
30973;DHT22;25423;45.624;13.790;2023-01-05T14:55:23;11.20;99.90
30973;DHT22;25423;45.624;13.790;2023-01-05T14:57:50;11.20;99.90
30973;DHT22;25423;45.624;13.790;2023-01-05T15:05:22;11.10;99.90
30973;DHT22;25423;45.624;13.790;2023-01-05T15:07:52;11.10;99.90
30973;DHT22;25423;45.624;13.790;2023-01-05T15:10:31;11.00;99.90
30973;DHT22;25423;45.624;13.790;2023-01-05T15:16:01;11.10;99.90
30973;DHT22;25423;45.624;13.790;2023-01-05T15:23:59;11.00;99.90
30973;DHT22;25423;45.624;13.790;2023-01-05T15:26:34;11.00;99.90
30973;DHT22;25423;45.624;13.790;2023-01-05T15:31:38;11.00;99.90
30973;DHT22;25423;45.624;13.790;2023-01-05T15:34:41;11.00;99.90
30973;DHT22;25423;45.624;13.790;2023-01-05T15:39:47;11.00;99.90
30973;DHT22;25423;45.624;13.790;2023-01-05T15:42:15;11.00;99.90
30973;DHT22;25423;45.624;13.790;2023-01-05T15:44:43;10.90;99.90
30973;DHT22;25423;45.624;13.790;2023-01-05T15:47:09;10.90;99.90
30973;DHT22;25423;45.624;13.790;2023-01-05T15:49:35;11.00;99.90
30973;DHT22;25423;45.624;13.790;2023-01-05T15:52:02;11.00;99.90
30973;DHT22;25423;45.624;13.790;2023-01-05T15:54:29;11.00;99.90
30973;DHT22;25423;45.624;13.790;2023-01-05T15:56:56;11.00;99.90
30973;DHT22;25423;45.624;13.790;2023-01-05T16:01:47;11.20;99.90
30973;DHT22;25423;45.624;13.790;2023-01-05T16:04:13;11.20;99.90
30973;DHT22;25423;45.624;13.790;2023-01-05T16:06:39;11.20;99.90
30973;DHT22;25423;45.624;13.790;2023-01-05T16:09:07;11.20;99.90
30973;DHT22;25423;45.624;13.790;2023-01-05T16:11:38;11.30;99.90
30973;DHT22;25423;45.624;13.790;2023-01-05T16:19:00;11.20;99.90
30973;DHT22;25423;45.624;13.790;2023-01-05T16:24:13;11.30;99.90
30973;DHT22;25423;45.624;13.790;2023-01-05T16:26:40;11.30;99.90
30973;DHT22;25423;45.624;13.790;2023-01-05T16:31:54;11.30;99.90
30973;DHT22;25423;45.624;13.790;2023-01-05T16:34:20;11.20;99.90
30973;DHT22;25423;45.624;13.790;2023-01-05T16:37:00;11.10;99.90
30973;DHT22;25423;45.624;13.790;2023-01-05T16:39:25;11.10;99.90
30973;DHT22;25423;45.624;13.790;2023-01-05T16:44:58;11.10;99.90
30973;DHT22;25423;45.624;13.790;2023-01-05T16:47:37;11.20;99.90
30973;DHT22;25423;45.624;13.790;2023-01-05T16:50:23;11.10;99.90
30973;DHT22;25423;45.624;13.790;2023-01-05T16:52:56;11.20;99.90
30973;DHT22;25423;45.624;13.790;2023-01-05T16:55:22;11.20;99.90
30973;DHT22;25423;45.624;13.790;2023-01-05T16:57:49;11.20;99.90
30973;DHT22;25423;45.624;13.790;2023-01-05T17:02:53;11.20;99.90
30973;DHT22;25423;45.624;13.790;2023-01-05T17:05:19;11.10;99.90
30973;DHT22;25423;45.624;13.790;2023-01-05T17:07:47;11.20;99.90
30973;DHT22;25423;45.624;13.790;2023-01-05T17:10:17;11.10;99.90
30973;DHT22;25423;45.624;13.790;2023-01-05T17:12:43;11.20;99.90
30973;DHT22;25423;45.624;13.790;2023-01-05T17:15:14;11.20;99.90
30973;DHT22;25423;45.624;13.790;2023-01-05T17:17:41;11.20;99.90
30973;DHT22;25423;45.624;13.790;2023-01-05T17:20:09;11.20;99.90
30973;DHT22;25423;45.624;13.790;2023-01-05T17:22:35;11.20;99.90
30973;DHT22;25423;45.624;13.790;2023-01-05T17:25:00;11.20;99.90
30973;DHT22;25423;45.624;13.790;2023-01-05T17:27:26;11.20;99.90
30973;DHT22;25423;45.624;13.790;2023-01-05T17:29:52;11.30;99.90
30973;DHT22;25423;45.624;13.790;2023-01-05T17:32:17;11.20;99.90
30973;DHT22;25423;45.624;13.790;2023-01-05T17:34:43;11.20;99.90
30973;DHT22;25423;45.624;13.790;2023-01-05T17:37:10;11.30;99.90
30973;DHT22;25423;45.624;13.790;2023-01-05T17:39:38;11.30;99.90
30973;DHT22;25423;45.624;13.790;2023-01-05T17:42:04;11.20;99.90
30973;DHT22;25423;45.624;13.790;2023-01-05T17:44:48;11.20;99.90
30973;DHT22;25423;45.624;13.790;2023-01-05T17:47:13;11.20;99.90
30973;DHT22;25423;45.624;13.790;2023-01-05T17:49:39;11.10;99.90
30973;DHT22;25423;45.624;13.790;2023-01-05T17:52:04;11.20;99.90
30973;DHT22;25423;45.624;13.790;2023-01-05T17:54:30;11.30;99.90
30973;DHT22;25423;45.624;13.790;2023-01-05T17:56:56;11.30;99.90
30973;DHT22;25423;45.624;13.790;2023-01-05T17:59:21;11.40;99.90
30973;DHT22;25423;45.624;13.790;2023-01-05T18:01:47;11.40;99.90
30973;DHT22;25423;45.624;13.790;2023-01-05T18:04:12;11.40;99.90
30973;DHT22;25423;45.624;13.790;2023-01-05T18:06:38;11.40;99.90
30973;DHT22;25423;45.624;13.790;2023-01-05T18:09:04;11.40;99.90
30973;DHT22;25423;45.624;13.790;2023-01-05T18:11:29;11.40;99.90
30973;DHT22;25423;45.624;13.790;2023-01-05T18:13:55;11.40;99.90
30973;DHT22;25423;45.624;13.790;2023-01-05T18:16:20;11.40;99.90
30973;DHT22;25423;45.624;13.790;2023-01-05T18:18:46;11.40;99.90